默认 日期 大小 文件数 浏览量 最新下载 xml
2025/磁力链接相关资源由用户搜索指令自动获取,结果来源于网络,本站不存储任何资料,亦不承担任何责任,请于24小时内删除,搜索到325318个磁力,显示前4000条数据,用时123ms。
    {"cover.jpg": 52845, "front.jpg": 341638, "04. Soul Gathering.flac": 23960741, "03. Banshee’s Lullaby.flac": 22309538, "01. I Heard a Voices’ Call.flac": 41188436, "02. Waiting for Halloween Eve.flac": 50183923}
创建时间: 2026-08-20 15:07:51 大小:131.64 MB 文件数量:6 热度:0
    ... Madhuvanti Pal - Nights of Bishnupur (2025) [24-48]": {"artist.jpg": 55849 ... Madhuvanti Pal - Mornings of Bishnupur (2025) [24-48]": {"artist.jpg": 68517 ... Madhuvanti Pal - Evenings of Bishnupur (2025) [24-48]": {"artist.jpg": 596281 ...
创建时间: 2026-08-20 14:59:20 大小:3.27 GB 文件数量:19 热度:0
    {"Importante Leeme!.vbs": 213, "ARAFTA.S01E05.2025.1080p-WEB-DL-Lat.mp4": 1306332936, "Descargar Películas, Series y Animes Gratis....url": 50}
创建时间: 2026-08-20 14:53:18 大小:1.22 GB 文件数量:3 热度:0
    {"Artwork": {"front.jpg": 357911}, "folder.jpg": 84904, "foo_dr.txt": 1554, "Turn Thy Loose.cue": 2506, "02 - Bota Fogo.flac": 47903168, "09 - Hurgulove.flac": 65071849, "04 - Marcha Macia.flac": 13265447, "07 - Hummingbird .flac": 25480111, "03 - Pairs of ...
创建时间: 2026-08-20 14:51:47 大小:377.95 MB 文件数量:18 热度:0
    ... .txt": 127, "Our.Hero.Balthazar.2025.1080p.WEBRip.x265.10bit.AAC5 ... .mp4": 1723808431, "Our.Hero.Balthazar.2025.1080p.WEBRip.x265.10bit.AAC5 ... .srt": 96435, "Our.Hero.Balthazar.2025.1080p.WEBRip.x265.10bit.AAC5 ...
创建时间: 2026-08-20 14:50:47 大小:1.61 GB 文件数量:6 热度:0
    {"YIFYStatus.com.txt": 848, "YTS.GG - Official site.jpg": 38690, "Momo.2025.2160p.4K.WEB.x265.10bit.AAC5.1-[YTS.GG - YTS.BZ].mkv": 4429516898}
创建时间: 2026-08-20 14:50:08 大小:4.13 GB 文件数量:3 热度:0
    ... 176056197, "Premiere Screening September 19, 2025.mkv": 476300831, "Stage Greeting Footage ... August 27, 2025.mkv": 645016831, "Post-Release Appreciation ... Greeting September 30, 2025.mkv": 509309116}, "100 Meters (2025) (1080p BluRay ...
创建时间: 2026-08-20 14:50:01 大小:8.25 GB 文件数量:16 热度:0
    {"Zapraszamy na best-torrents.com.url": 115, "Jadwiga.The.Witch.2025.PLSUBBED.WEB-DL.XviD-R22.avi": 734376002}
创建时间: 2026-08-20 14:43:00 大小:700.36 MB 文件数量:2 热度:0
    {"Speed.and.Love.S01E13.2025.2160p.IQ.WEB-DL.H265. ... ": 1419537577, "Speed.and.Love.S01E14.2025.2160p.IQ.WEB-DL.H265 ...
创建时间: 2026-08-20 14:37:22 大小:2.55 GB 文件数量:5 热度:0
    ... 真订阅福利 2025-05-03 Shower PPV.p ... 真订阅福利 2025-05-03 Shower PPV.p ... 真订阅福利 2025-05-03 Shower PPV.p ... 真订阅福利 2025-05-03 Shower PPV.p ... 真订阅福利 2025-05-03 Shower PPV. ... 真订阅福利 2025-05-03 Shower PPV. ... 真订阅福利 2025-05-03 Shower PPV. ... 真订阅福利 2025-05-03 Shower PPV. ... 真订阅福利 2025-05-03 Shower PPV. ...
创建时间: 2026-08-20 14:36:29 大小:12.58 MB 文件数量:20 热度:0
    {"Artwork": {"back.jpg": 1254403, "front.jpg": 1041692}, "folder.jpg": 49585, "foo_dr.txt": 1355, "04 - Chihiro.flac": 28410915, "06 - Sunlight.flac": 31321614, "10 - Downtime.flac": 30646411, "02 - Forever More.flac": 32352701, "05 - Makin' Moves.flac": ...
创建时间: 2026-08-20 14:32:09 大小:284.14 MB 文件数量:18 热度:0
    {"Two.Seasons.Two.Strangers.2025.1080p.BluRay.x264.DTS-WiKi.md5": 96, "Two.Seasons.Two.Strangers.2025.1080p.BluRay.x264.DTS-WiKi.mkv": 8540923714, "Two.Seasons.Two.Strangers.2025.1080p.BluRay.x264.DTS-WiKi.nfo": 4768}
创建时间: 2026-08-20 14:31:37 大小:7.95 GB 文件数量:3 热度:0
    ... .org .txt": 129, "Shark.Week.2025.In.the.Eye.of.the ... -MeGusta.mkv": 423900943, "Shark.Week.2025.In.the.Eye.of.the ...
创建时间: 2026-08-20 14:31:30 大小:415.28 MB 文件数量:6 热度:0
    {"Torrent Downloaded From UIndex.org .txt": 127, "Influencers 2025 1080p BluRay x265 SDR DDP 5 1 English - DarQ HONE.mkv": 7061726074, "Influencers 2025 1080p BluRay x265 SDR DDP 5 1 English - DarQ HONE.mkv.nfo": 780}
创建时间: 2026-08-20 14:28:57 大小:6.58 GB 文件数量:3 热度:0
    {"Torrent Downloaded From UIndex.org .txt": 127, "The Strangers Chapter 2 2025 1080p HMAX WEB-DL DDP 5 1 H 265-PiRaTeS.mkv": 1355294403, "The Strangers Chapter 2 2025 1080p HMAX WEB-DL DDP 5 1 H 265-PiRaTeS.mkv.nfo": 838}
创建时间: 2026-08-20 14:27:29 大小:1.26 GB 文件数量:3 热度:0
    {"A.Foggy.Tale.2025.1080p.NF.WEB-DL.H. ...
创建时间: 2026-08-20 14:26:50 大小:5.11 GB 文件数量:4 热度:0
    {"Canal Telegram Oficial.url": 112, "Whistle El silbido del mal (2025) [Bluray 1080p][Esp].mkv": 14556036348}
创建时间: 2026-08-20 14:25:19 大小:13.56 GB 文件数量:2 热度:0
    {"BDMV": {"JAR": {"00001": {"disc.xml": 2085, "resume.png": 48196, "resume.txt": 244, "resume.xml": 535, "assets1.png": 31607, "assets1.txt": 639, "chapters.xml": 921, "timeline.png": 37513, "timeline.txt": 719, "bm_text_a.png": 3732, "bm_text_a.txt": 328, ...
创建时间: 2026-08-20 14:19:13 大小:83.05 GB 文件数量:195 热度:0
    {"Shine.on.Me.S01E33.2025.2160p.IQ.WEB-DL.H265. ...
创建时间: 2026-08-20 14:16:33 大小:1.11 GB 文件数量:4 热度:0
    {"El agente secreto (2025) [tmdbid-1220564] - [BluRay-1080p][Dolby Digital Plus 5.1][x264] - [spa, por] - LasCositas.mkv": 19208092363}
创建时间: 2026-08-20 14:12:35 大小:17.89 GB 文件数量:1 热度:0